Time;durP1;ratioP1;P1;durP2;ratioP2;P2;SDS_P1;SDS_P2;PMS_P1;PMS_P2;Temp;Humidity;BMP_temperature;BMP_pressure;BME280_temperature;BME280_humidity;BME280_pressure;Samples;Min_cycle;Max_cycle;Signal;HPM_P1;HPM_P2
2021/06/08 00:02:28;;;;;;;13.55;7.43;;;12.60;99.90;;;;;;5078586;28;20063;-67
2021/06/08 00:04:59;;;;;;;13.80;8.05;;;12.70;99.90;;;;;;5066723;28;20481;-67
2021/06/08 00:11:39;;;;;;;12.68;7.68;;;12.80;99.90;;;;;;5080700;28;20082;-67
2021/06/08 00:14:31;;;;;;;18.90;10.25;;;12.90;99.90;;;;;;5053239;28;20044;-67
2021/06/08 00:17:30;;;;;;;12.48;7.32;;;12.80;99.90;;;;;;5057876;28;20132;-66
2021/06/08 00:19:57;;;;;;;11.50;6.90;;;12.90;99.90;;;;;;5076536;28;20048;-67
2021/06/08 00:27:16;;;;;;;11.52;7.07;;;12.90;99.90;;;;;;5075917;28;20384;-66
2021/06/08 00:30:07;;;;;;;14.05;8.48;;;12.90;99.90;;;;;;5057740;28;20093;-66
2021/06/08 00:36:41;;;;;;;12.63;6.85;;;12.80;99.90;;;;;;5077158;28;20031;-66
2021/06/08 00:39:50;;;;;;;11.60;7.43;;;12.90;99.90;;;;;;5078283;28;20059;-67
2021/06/08 00:46:44;;;;;;;14.82;8.40;;;12.90;99.90;;;;;;5060580;28;20138;-66
2021/06/08 00:49:14;;;;;;;19.05;10.57;;;12.90;99.90;;;;;;5060010;28;20102;-67
2021/06/08 00:51:44;;;;;;;15.57;9.00;;;12.90;99.90;;;;;;5070805;28;20068;-67
2021/06/08 00:54:25;;;;;;;13.90;7.80;;;12.80;99.90;;;;;;5079921;28;20500;-66
2021/06/08 01:00:35;;;;;;;12.07;7.28;;;12.90;99.90;;;;;;5066546;28;20560;-66
2021/06/08 01:06:50;;;;;;;20.80;11.18;;;12.90;99.90;;;;;;5061388;28;20032;-66
2021/06/08 01:09:17;;;;;;;16.92;10.60;;;12.80;99.90;;;;;;5072688;28;20545;-65
2021/06/08 01:11:49;;;;;;;22.33;11.98;;;12.70;99.90;;;;;;5074088;28;20045;-66
2021/06/08 01:14:25;;;;;;;22.48;11.52;;;12.70;99.90;;;;;;5059425;28;20066;-66
2021/06/08 01:16:57;;;;;;;19.05;10.15;;;12.70;99.90;;;;;;5069556;28;20125;-67
2021/06/08 01:19:39;;;;;;;19.25;11.02;;;12.70;99.90;;;;;;5052604;28;20091;-67
2021/06/08 01:22:07;;;;;;;16.42;9.45;;;12.70;99.90;;;;;;5075927;28;20053;-67
2021/06/08 01:24:33;;;;;;;23.85;11.45;;;12.70;99.90;;;;;;5076522;28;20040;-66
2021/06/08 01:27:03;;;;;;;26.52;13.73;;;12.70;99.90;;;;;;5079374;28;20040;-66
2021/06/08 01:29:32;;;;;;;20.70;11.80;;;12.70;99.90;;;;;;5075673;28;20044;-66
2021/06/08 01:39:24;;;;;;;45.92;21.55;;;12.80;99.90;;;;;;5090333;28;20058;-67
2021/06/08 01:42:21;;;;;;;61.17;27.25;;;12.70;99.90;;;;;;5097439;28;20052;-67
2021/06/08 01:44:59;;;;;;;36.45;18.67;;;12.70;99.90;;;;;;5076866;28;20140;-67
2021/06/08 01:47:26;;;;;;;48.95;23.20;;;12.70;99.90;;;;;;5062067;28;20041;-66
2021/06/08 01:49:58;;;;;;;46.67;22.02;;;12.70;99.90;;;;;;5062004;28;20098;-67
2021/06/08 01:52:27;;;;;;;59.00;26.50;;;12.60;99.90;;;;;;5061985;28;20437;-67
2021/06/08 01:59:17;;;;;;;55.28;24.17;;;12.60;99.90;;;;;;5086605;28;20074;-66
2021/06/08 02:02:37;;;;;;;46.50;21.67;;;12.60;99.90;;;;;;5057225;28;20131;-66
2021/06/08 02:05:37;;;;;;;47.20;19.95;;;12.70;99.90;;;;;;5051558;28;20049;-66
2021/06/08 02:12:04;;;;;;;33.92;17.17;;;12.80;99.90;;;;;;5044620;28;20044;-67
2021/06/08 02:14:58;;;;;;;29.58;14.63;;;12.80;99.90;;;;;;5022907;28;20053;-67
2021/06/08 02:21:05;;;;;;;20.77;10.45;;;12.90;99.90;;;;;;5037113;28;20126;-67
2021/06/08 02:23:45;;;;;;;16.95;9.27;;;13.00;99.90;;;;;;5034138;28;20046;-66
2021/06/08 02:26:51;;;;;;;14.73;8.73;;;13.00;99.90;;;;;;5037635;28;20068;-66
2021/06/08 02:29:32;;;;;;;16.85;9.65;;;13.00;99.90;;;;;;5052819;28;20053;-67
2021/06/08 02:32:15;;;;;;;15.07;8.80;;;13.10;99.90;;;;;;5042570;28;20096;-66
2021/06/08 02:49:59;;;;;;;9.80;5.78;;;12.90;99.90;;;;;;5084268;28;20490;-66
2021/06/08 02:59:32;;;;;;;10.43;6.32;;;13.00;99.90;;;;;;5056476;28;20433;-67
2021/06/08 03:02:04;;;;;;;10.48;6.03;;;12.90;99.90;;;;;;5076070;28;20052;-67
2021/06/08 03:04:39;;;;;;;10.23;6.67;;;13.00;99.90;;;;;;5075981;28;20361;-67
2021/06/08 03:07:10;;;;;;;11.07;6.38;;;13.00;99.90;;;;;;5056030;28;20041;-67
2021/06/08 03:17:14;;;;;;;17.25;9.70;;;12.90;99.90;;;;;;5095589;28;20043;-66
2021/06/08 03:19:48;;;;;;;15.05;8.75;;;12.90;99.90;;;;;;5055911;28;20053;-66
2021/06/08 03:27:07;;;;;;;15.50;9.20;;;12.80;99.90;;;;;;5075287;28;20571;-67
2021/06/08 03:29:38;;;;;;;16.85;9.90;;;12.80;99.90;;;;;;5068190;28;20047;-67
2021/06/08 03:32:16;;;;;;;16.30;9.57;;;12.80;99.90;;;;;;5075204;28;20451;-67
2021/06/08 03:34:44;;;;;;;20.83;11.48;;;12.70;99.90;;;;;;5094016;28;20120;-66
2021/06/08 03:37:25;;;;;;;14.88;9.10;;;12.80;99.90;;;;;;5060310;28;20041;-66
2021/06/08 03:40:13;;;;;;;14.63;7.85;;;12.80;99.90;;;;;;5070974;28;20040;-67
2021/06/08 03:42:56;;;;;;;13.00;7.95;;;12.80;99.90;;;;;;5091679;28;20053;-67
2021/06/08 03:45:49;;;;;;;12.02;7.00;;;12.90;99.90;;;;;;5074140;28;20036;-66
2021/06/08 03:52:15;;;;;;;13.00;7.25;;;13.00;99.90;;;;;;5066244;28;20541;-67
2021/06/08 03:55:09;;;;;;;;;;;13.10;99.90;;;;;;5070907;28;20033;-66
2021/06/08 03:58:00;;;;;;;9.38;4.88;;;13.10;99.90;;;;;;5078704;28;19920;-67
2021/06/08 04:00:54;;;;;;;12.20;7.03;;;13.10;99.90;;;;;;5057617;28;20058;-66
2021/06/08 04:03:23;;;;;;;11.82;6.65;;;13.20;99.90;;;;;;5055750;28;20053;-66
2021/06/08 04:10:20;;;;;;;17.98;10.48;;;13.20;99.90;;;;;;5060332;28;20120;-66
2021/06/08 04:13:22;;;;;;;18.33;9.88;;;13.20;99.90;;;;;;5070297;28;20075;-67
2021/06/08 04:16:12;;;;;;;18.85;10.55;;;13.20;99.90;;;;;;5062273;28;20510;-66
2021/06/08 04:22:58;;;;;;;11.38;6.32;;;13.10;99.90;;;;;;5056318;28;20512;-67
2021/06/08 04:32:49;;;;;;;20.75;8.57;;;13.20;99.90;;;;;;5070323;28;20047;-66
2021/06/08 04:35:19;;;;;;;12.85;7.68;;;13.20;99.90;;;;;;5073519;28;20086;-66
2021/06/08 04:41:32;;;;;;;12.35;6.57;;;13.20;99.90;;;;;;5053632;28;20128;-66
2021/06/08 04:48:37;;;;;;;12.98;7.07;;;13.30;99.90;;;;;;4975847;28;20036;-66
2021/06/08 04:55:05;;;;;;;15.27;8.13;;;13.40;99.90;;;;;;4995844;28;20209;-67
2021/06/08 04:58:12;;;;;;;15.23;8.82;;;13.40;99.90;;;;;;4980547;28;20050;-66
2021/06/08 05:08:24;;;;;;;18.83;8.88;;;13.30;99.90;;;;;;4977556;28;20054;-66
2021/06/08 05:11:14;;;;;;;19.88;10.38;;;13.30;99.90;;;;;;4987772;28;20113;-66
2021/06/08 05:14:12;;;;;;;20.15;10.48;;;13.20;99.90;;;;;;4975119;28;20061;-67
2021/06/08 05:20:56;;;;;;;22.10;12.13;;;13.30;99.90;;;;;;4994527;28;20116;-67
2021/06/08 05:24:25;;;;;;;26.73;13.43;;;13.30;99.90;;;;;;5059083;28;20036;-67
2021/06/08 05:27:20;;;;;;;33.72;18.05;;;13.30;99.90;;;;;;5074036;28;20048;-67
2021/06/08 05:30:15;;;;;;;32.08;17.73;;;13.30;99.90;;;;;;5067687;28;20056;-67
2021/06/08 05:33:21;;;;;;;26.85;14.20;;;13.30;99.90;;;;;;5067947;28;20630;-67
2021/06/08 05:36:05;;;;;;;40.30;20.85;;;13.30;99.90;;;;;;5070909;28;20112;-67
2021/06/08 05:42:51;;;;;;;31.63;16.20;;;13.20;99.90;;;;;;5063470;28;20058;-67
2021/06/08 05:46:08;;;;;;;29.85;15.00;;;13.10;99.90;;;;;;5087387;28;20067;-67
2021/06/08 05:48:35;;;;;;;24.13;12.98;;;13.10;99.90;;;;;;5073993;28;20111;-67
2021/06/08 05:55:25;;;;;;;23.70;12.30;;;13.20;99.90;;;;;;5065798;28;20035;-67
2021/06/08 06:06:07;;;;;;;23.98;11.10;;;13.20;99.90;;;;;;5090320;28;20070;-67
2021/06/08 06:23:46;;;;;;;13.88;8.10;;;13.30;99.90;;;;;;5056385;28;20083;-67
2021/06/08 06:26:17;;;;;;;12.52;6.75;;;13.40;99.90;;;;;;5071696;28;20103;-67
2021/06/08 06:32:59;;;;;;;14.93;8.23;;;13.60;99.90;;;;;;5072022;28;20119;-67
2021/06/08 06:36:06;;;;;;;14.82;7.47;;;13.70;99.90;;;;;;5077623;28;20053;-67
2021/06/08 06:38:49;;;;;;;13.07;7.18;;;13.80;99.90;;;;;;5060493;28;20135;-67
2021/06/08 06:41:21;;;;;;;17.35;10.15;;;13.90;99.90;;;;;;5061911;28;20163;-67
2021/06/08 06:48:12;;;;;;;12.25;6.72;;;14.00;99.90;;;;;;5073351;28;20074;-67
2021/06/08 06:51:15;;;;;;;17.55;8.88;;;14.10;99.90;;;;;;5072211;28;20049;-67
2021/06/08 06:53:43;;;;;;;14.37;8.67;;;14.30;99.90;;;;;;5068578;28;20075;-67
2021/06/08 07:00:28;;;;;;;11.50;7.10;;;14.50;99.90;;;;;;5073112;28;20048;-67
2021/06/08 07:03:32;;;;;;;12.35;7.15;;;14.60;99.90;;;;;;5055748;28;20041;-66
2021/06/08 07:13:08;;;;;;;22.25;12.32;;;14.90;99.90;;;;;;5055486;28;20047;-66
2021/06/08 07:15:49;;;;;;;15.45;9.13;;;14.90;99.90;;;;;;5060626;28;20110;-67
2021/06/08 07:33:57;;;;;;;16.55;8.80;;;15.00;99.90;;;;;;5040816;28;20049;-67
2021/06/08 07:36:39;;;;;;;14.68;9.30;;;15.00;99.90;;;;;;5037162;28;20408;-67
2021/06/08 07:43:07;;;;;;;14.82;8.43;;;15.10;99.90;;;;;;5039310;28;20033;-67
2021/06/08 07:46:13;;;;;;;14.15;7.78;;;15.10;99.90;;;;;;5020591;28;20053;-67
2021/06/08 07:53:08;;;;;;;16.90;9.80;;;15.20;99.90;;;;;;5045264;28;20101;-67
2021/06/08 07:55:36;;;;;;;12.73;7.72;;;15.30;99.90;;;;;;5037472;28;20100;-66
2021/06/08 07:58:25;;;;;;;15.30;9.95;;;15.30;99.90;;;;;;5054596;28;20045;-67
2021/06/08 08:00:59;;;;;;;16.17;8.80;;;15.40;99.90;;;;;;5050174;28;20041;-67
2021/06/08 08:03:50;;;;;;;14.77;8.20;;;15.40;99.90;;;;;;5040604;28;20191;-67
2021/06/08 08:10:40;;;;;;;13.52;8.43;;;15.60;99.90;;;;;;5029842;28;20040;-67
2021/06/08 08:13:06;;;;;;;11.57;7.53;;;15.60;99.90;;;;;;5044158;28;20048;-67
2021/06/08 08:15:45;;;;;;;12.88;8.55;;;15.60;99.90;;;;;;5040834;28;20132;-67
2021/06/08 08:18:30;;;;;;;12.70;7.40;;;15.70;99.90;;;;;;5035307;28;20060;-67
2021/06/08 08:21:18;;;;;;;13.55;8.75;;;15.80;99.90;;;;;;5037423;28;20163;-67
2021/06/08 08:23:47;;;;;;;14.45;9.35;;;15.90;99.90;;;;;;5038461;28;20413;-67
2021/06/08 08:30:39;;;;;;;13.38;7.93;;;16.10;99.90;;;;;;5072533;28;20078;-67
2021/06/08 08:33:36;;;;;;;15.23;8.95;;;16.20;99.90;;;;;;5076743;28;20049;-67
2021/06/08 08:36:09;;;;;;;16.17;9.82;;;16.20;99.90;;;;;;5052994;28;20040;-67
2021/06/08 08:38:43;;;;;;;14.63;8.98;;;16.30;99.90;;;;;;5087003;28;20150;-67
2021/06/08 08:41:18;;;;;;;17.20;9.35;;;16.30;99.90;;;;;;5055555;28;20053;-67
2021/06/08 08:55:41;;;;;;;16.55;9.57;;;16.70;99.90;;;;;;5093566;28;20035;-67
2021/06/08 08:58:10;;;;;;;15.95;9.02;;;16.80;99.90;;;;;;5094468;28;20041;-67
2021/06/08 09:08:09;;;;;;;23.80;13.15;;;17.00;99.90;;;;;;5078923;28;20123;-67
2021/06/08 09:10:38;;;;;;;21.27;11.18;;;17.10;99.90;;;;;;5073848;28;20041;-67
2021/06/08 09:13:13;;;;;;;19.55;10.95;;;17.10;99.90;;;;;;5082098;28;20100;-67
2021/06/08 09:15:56;;;;;;;22.08;12.40;;;17.20;99.90;;;;;;5078624;28;20032;-67
2021/06/08 09:18:28;;;;;;;28.05;13.75;;;17.30;99.90;;;;;;5058158;28;20473;-67
2021/06/08 09:21:24;;;;;;;22.30;11.98;;;17.40;99.90;;;;;;5080157;28;20048;-67
2021/06/08 09:24:22;;;;;;;19.67;10.68;;;17.40;99.90;;;;;;5087821;28;20067;-67
2021/06/08 09:30:43;;;;;;;19.02;10.10;;;17.60;99.90;;;;;;5038919;28;20079;-67
2021/06/08 09:33:44;;;;;;;16.92;9.75;;;17.80;99.90;;;;;;5033572;28;20037;-67
2021/06/08 09:36:11;;;;;;;17.10;8.73;;;18.00;99.90;;;;;;5048488;28;20405;-67
2021/06/08 09:39:02;;;;;;;20.23;11.07;;;18.10;99.90;;;;;;5040351;28;20057;-68
2021/06/08 09:49:01;;;;;;;25.77;11.90;;;18.20;99.90;;;;;;5013181;28;20041;-67
2021/06/08 09:55:58;;;;;;;20.63;11.63;;;18.30;99.90;;;;;;5036439;28;20448;-67
2021/06/08 10:13:15;;;;;;;15.27;8.32;;;18.80;99.90;;;;;;5041011;28;20599;-67
2021/06/08 10:15:58;;;;;;;20.45;10.27;;;18.80;99.90;;;;;;5042411;28;20571;-67
2021/06/08 10:18:50;;;;;;;17.63;9.88;;;18.90;99.90;;;;;;5051454;28;20084;-67
2021/06/08 10:21:47;;;;;;;17.35;9.75;;;19.00;99.90;;;;;;5045840;28;20048;-67
2021/06/08 10:28:16;;;;;;;16.25;8.32;;;19.40;99.90;;;;;;5067081;28;20077;-67
2021/06/08 10:38:14;;;;;;;14.10;8.07;;;19.60;99.90;;;;;;5096247;28;20108;-67
2021/06/08 10:40:57;;;;;;;13.90;7.78;;;19.60;99.90;;;;;;5056245;28;20041;-67
2021/06/08 10:43:52;;;;;;;14.85;8.57;;;19.60;99.90;;;;;;5056062;28;20120;-66
2021/06/08 10:50:47;;;;;;;14.57;7.93;;;19.70;99.90;;;;;;5074355;28;20094;-66
2021/06/08 10:53:49;;;;;;;14.30;8.43;;;19.90;99.90;;;;;;5059729;28;20496;-67
2021/06/08 11:29:33;;;;;;;6.30;3.53;;;21.00;99.90;;;;;;5059665;28;20131;-67
2021/06/08 11:36:28;;;;;;;7.38;4.32;;;21.30;99.90;;;;;;5060073;28;20090;-67
2021/06/08 11:39:13;;;;;;;6.95;4.13;;;21.30;99.90;;;;;;5055363;28;20090;-67
2021/06/08 11:53:32;;;;;;;;;;;;;;;;;;;;;
2021/06/08 11:56:38;;;;;;;11.03;5.47;;;21.30;99.90;;;;;;5053797;28;20045;-67
2021/06/08 11:59:07;;;;;;;7.65;4.57;;;21.50;99.90;;;;;;5058942;28;20385;-67
2021/06/08 12:05:57;;;;;;;7.40;4.32;;;21.60;99.90;;;;;;5074263;28;20035;-67
2021/06/08 12:08:38;;;;;;;5.93;3.50;;;21.60;99.90;;;;;;5075118;28;20119;-67
2021/06/08 12:18:58;;;;;;;6.45;3.20;;;21.80;99.90;;;;;;5072847;28;20394;-67
2021/06/08 12:21:27;;;;;;;7.75;3.88;;;21.90;99.90;;;;;;5054325;28;20053;-67
2021/06/08 12:24:05;;;;;;;7.43;4.57;;;22.00;99.90;;;;;;5061079;28;20094;-68
2021/06/08 12:31:10;;;;;;;6.97;4.22;;;22.10;99.90;;;;;;5067832;28;20051;-67
2021/06/08 12:33:59;;;;;;;6.57;4.10;;;22.10;99.90;;;;;;5032898;28;20075;-67
2021/06/08 12:36:42;;;;;;;6.88;4.45;;;22.00;99.90;;;;;;5033217;28;20041;-67
2021/06/08 12:39:28;;;;;;;6.30;3.63;;;22.00;99.90;;;;;;5028017;28;20074;-67
2021/06/08 12:46:01;;;;;;;6.28;3.67;;;22.00;99.90;;;;;;5050929;28;20064;-67
2021/06/08 12:48:30;;;;;;;6.82;4.05;;;22.00;99.90;;;;;;5028745;28;20099;-67
2021/06/08 12:51:29;;;;;;;8.75;5.07;;;22.00;99.90;;;;;;5014257;28;20120;-67
2021/06/08 12:54:05;;;;;;;6.18;4.10;;;22.00;99.90;;;;;;5013916;28;20038;-67
2021/06/08 13:01:02;;;;;;;6.68;4.22;;;22.20;99.90;;;;;;5021975;28;20496;-65
2021/06/08 13:03:39;;;;;;;6.20;3.70;;;22.30;99.90;;;;;;5030153;28;20045;-66
2021/06/08 13:06:12;;;;;;;5.90;3.95;;;22.40;99.90;;;;;;5014317;28;20042;-65
2021/06/08 13:09:03;;;;;;;6.53;3.53;;;22.40;99.90;;;;;;5036706;28;20041;-68
2021/06/08 13:11:32;;;;;;;7.85;4.88;;;22.40;99.90;;;;;;5033824;28;20042;-68
2021/06/08 13:14:18;;;;;;;7.25;4.70;;;22.50;99.90;;;;;;5033362;28;20124;-67
2021/06/08 13:16:45;;;;;;;6.65;4.38;;;22.60;99.90;;;;;;5025132;28;20037;-68
2021/06/08 13:23:32;;;;;;;11.77;7.38;;;22.70;99.90;;;;;;5028028;28;20036;-65
2021/06/08 13:26:13;;;;;;;11.40;7.60;;;22.90;99.90;;;;;;5033197;28;20507;-65
2021/06/08 13:36:38;;;;;;;13.45;8.55;;;22.90;99.90;;;;;;5081211;28;20093;-65
2021/06/08 13:39:21;;;;;;;12.25;8.07;;;22.80;99.90;;;;;;5061280;28;20036;-65
2021/06/08 13:46:03;;;;;;;10.48;7.60;;;22.70;99.90;;;;;;5078194;28;20032;-65
2021/06/08 13:48:46;;;;;;;11.65;6.97;;;22.60;99.90;;;;;;5074216;28;20511;-65
2021/06/08 13:51:26;;;;;;;8.85;5.47;;;22.60;99.90;;;;;;5058404;28;20077;-65
2021/06/08 13:54:19;;;;;;;8.23;4.72;;;22.60;99.90;;;;;;5075706;28;20040;-65
2021/06/08 13:57:12;;;;;;;8.27;5.18;;;22.60;99.90;;;;;;5075244;28;20037;-65
2021/06/08 14:00:18;;;;;;;7.80;4.40;;;22.50;99.90;;;;;;5076204;28;20037;-65
2021/06/08 14:10:06;;;;;;;5.68;3.90;;;22.50;99.90;;;;;;5055332;28;20144;-67
2021/06/08 14:13:00;;;;;;;5.13;2.75;;;22.50;99.90;;;;;;5061303;28;20503;-66
2021/06/08 14:16:07;;;;;;;5.70;2.92;;;22.50;99.90;;;;;;5062374;28;20044;-67
2021/06/08 14:18:36;;;;;;;4.63;3.00;;;22.60;99.90;;;;;;5070821;28;20076;-67
2021/06/08 14:21:22;;;;;;;5.63;3.47;;;22.60;99.90;;;;;;5057133;28;20396;-67
2021/06/08 14:23:55;;;;;;;4.22;2.47;;;22.70;99.90;;;;;;5052556;28;20052;-66
2021/06/08 14:26:49;;;;;;;4.85;2.40;;;22.80;99.90;;;;;;5052585;28;20045;-67
2021/06/08 14:29:22;;;;;;;4.72;2.75;;;22.80;99.90;;;;;;5057550;28;20118;-67
2021/06/08 14:31:48;;;;;;;3.53;2.33;;;22.80;99.90;;;;;;5079653;28;20055;-67
2021/06/08 14:34:48;;;;;;;3.60;2.22;;;22.70;99.90;;;;;;5092574;28;20044;-67
2021/06/08 14:41:07;;;;;;;5.18;1.95;;;22.90;99.90;;;;;;5078746;28;20094;-66
2021/06/08 14:43:43;;;;;;;3.20;2.00;;;22.90;99.90;;;;;;5054980;28;20053;-66
2021/06/08 14:46:12;;;;;;;3.25;1.92;;;22.90;99.90;;;;;;5075192;28;20408;-67
2021/06/08 14:48:40;;;;;;;3.75;1.73;;;22.90;99.90;;;;;;5076054;28;20051;-67
2021/06/08 14:51:25;;;;;;;2.78;1.80;;;22.90;99.90;;;;;;5071922;28;20180;-67
2021/06/08 14:58:38;;;;;;;4.20;1.90;;;22.90;99.90;;;;;;5067630;28;20052;-66
2021/06/08 15:01:09;;;;;;;4.45;2.10;;;23.00;99.90;;;;;;5066772;28;20077;-66
2021/06/08 15:03:41;;;;;;;3.95;2.67;;;23.00;99.90;;;;;;5092693;28;20537;-67
2021/06/08 15:06:30;;;;;;;4.32;2.47;;;23.00;99.90;;;;;;5055753;28;20037;-67
2021/06/08 15:09:04;;;;;;;5.00;2.38;;;22.90;99.90;;;;;;5074376;28;20052;-66
2021/06/08 15:11:40;;;;;;;3.35;2.22;;;22.90;99.90;;;;;;5056096;28;20056;-67
2021/06/08 15:14:12;;;;;;;3.15;2.20;;;22.90;99.90;;;;;;5072743;28;20105;-67
2021/06/08 15:16:50;;;;;;;3.60;2.10;;;22.90;99.90;;;;;;5089258;28;20044;-67
2021/06/08 15:19:26;;;;;;;4.53;2.67;;;22.80;99.90;;;;;;5055601;28;20080;-67
2021/06/08 15:22:06;;;;;;;3.17;1.60;;;22.80;99.90;;;;;;5063876;28;20115;-67
2021/06/08 15:28:45;;;;;;;6.10;2.20;;;22.80;99.90;;;;;;5075371;28;20162;-67
2021/06/08 15:31:16;;;;;;;2.88;1.80;;;22.70;99.90;;;;;;5063330;28;20116;-67
2021/06/08 15:33:48;;;;;;;2.95;1.85;;;22.70;99.90;;;;;;5071529;28;20502;-67
2021/06/08 15:36:15;;;;;;;3.03;2.17;;;22.80;99.90;;;;;;5071946;28;20041;-67
2021/06/08 15:38:48;;;;;;;2.30;1.50;;;22.70;99.90;;;;;;5070945;28;20493;-67
2021/06/08 15:41:58;;;;;;;2.70;1.80;;;22.70;99.90;;;;;;5059221;28;20037;-67
2021/06/08 15:48:45;;;;;;;2.88;1.60;;;22.70;99.90;;;;;;5063448;28;20391;-66
2021/06/08 15:51:15;;;;;;;3.05;1.58;;;22.70;99.90;;;;;;5069218;28;20052;-67
2021/06/08 15:53:48;;;;;;;2.35;1.52;;;22.60;99.90;;;;;;5072696;28;20124;-66
2021/06/08 15:56:16;;;;;;;;;;;22.60;99.90;;;;;;5070863;28;20045;-66
2021/06/08 15:59:37;;;;;;;2.90;1.80;;;22.70;99.90;;;;;;5059396;28;19921;-67
2021/06/08 16:02:04;;;;;;;4.28;1.85;;;22.70;99.90;;;;;;5058239;28;20404;-66
2021/06/08 16:04:36;;;;;;;2.53;1.60;;;22.60;99.90;;;;;;5087477;28;20051;-66
2021/06/08 16:07:07;;;;;;;2.65;1.50;;;22.40;99.90;;;;;;5094221;28;20066;-67
2021/06/08 16:13:54;;;;;;;2.95;1.40;;;22.40;99.90;;;;;;5079217;28;20039;-67
2021/06/08 16:16:46;;;;;;;3.03;1.45;;;22.40;99.90;;;;;;5083462;28;20044;-67
2021/06/08 16:19:30;;;;;;;3.00;1.60;;;22.50;99.90;;;;;;5054181;28;20053;-67
2021/06/08 16:22:08;;;;;;;1.75;1.08;;;22.40;99.80;;;;;;5066131;28;20059;-67
2021/06/08 16:24:45;;;;;;;2.22;1.13;;;22.40;98.60;;;;;;5060661;28;20037;-67
2021/06/08 16:31:20;;;;;;;1.70;1.10;;;22.40;98.70;;;;;;5082535;28;20039;-67
2021/06/08 16:34:10;;;;;;;2.97;1.20;;;22.40;99.90;;;;;;5089036;28;20487;-66
2021/06/08 16:36:59;;;;;;;3.22;1.20;;;22.40;98.80;;;;;;5086155;28;20114;-67
2021/06/08 16:43:48;;;;;;;2.58;1.20;;;22.40;98.10;;;;;;5063306;28;20059;-67
2021/06/08 16:46:20;;;;;;;1.83;1.30;;;22.40;97.00;;;;;;5062144;28;20037;-67
2021/06/08 16:48:46;;;;;;;3.13;1.20;;;22.30;97.70;;;;;;5055347;28;20047;-66
2021/06/08 16:54:39;;;;;;;2.60;1.30;;;22.20;99.90;;;;;;5059804;28;20090;-67
2021/06/08 17:01:28;;;;;;;2.88;1.30;;;22.10;99.90;;;;;;5066158;28;20079;-66
2021/06/08 17:04:31;;;;;;;2.10;1.20;;;21.90;99.90;;;;;;5059723;28;20044;-67
2021/06/08 17:14:33;;;;;;;2.20;1.23;;;21.70;99.90;;;;;;5057524;28;20036;-67
2021/06/08 17:27:58;;;;;;;3.40;1.25;;;21.40;99.90;;;;;;5070053;28;20395;-67
2021/06/08 17:35:02;;;;;;;2.45;1.23;;;21.30;99.90;;;;;;5052540;28;20059;-67
2021/06/08 17:41:18;;;;;;;1.48;0.85;;;21.20;99.90;;;;;;5079775;28;20125;-67
2021/06/08 17:43:50;;;;;;;1.95;0.95;;;21.10;99.90;;;;;;5053146;28;20143;-67
2021/06/08 17:46:50;;;;;;;1.52;0.88;;;21.10;99.90;;;;;;5053281;28;20037;-67
2021/06/08 17:53:06;;;;;;;1.75;1.00;;;20.90;99.90;;;;;;5067497;28;20040;-67
2021/06/08 17:59:22;;;;;;;1.58;0.95;;;20.90;99.90;;;;;;5074101;28;20115;-67
2021/06/08 18:01:55;;;;;;;1.58;0.80;;;20.80;99.90;;;;;;5091039;28;20068;-67
2021/06/08 18:11:57;;;;;;;2.47;1.00;;;20.70;99.90;;;;;;5084690;28;20047;-67
2021/06/08 18:18:51;;;;;;;2.53;1.00;;;20.60;99.90;;;;;;5066270;28;20043;-67
2021/06/08 18:21:42;;;;;;;1.98;1.00;;;20.50;99.90;;;;;;5055453;28;20091;-67
2021/06/08 18:24:22;;;;;;;1.92;1.02;;;20.40;99.90;;;;;;5055439;28;20095;-67
2021/06/08 18:26:54;;;;;;;2.83;1.15;;;20.30;99.90;;;;;;5075676;28;20041;-67
2021/06/08 18:29:34;;;;;;;1.10;0.80;;;20.30;99.90;;;;;;5059821;28;20048;-67
2021/06/08 18:44:47;;;;;;;2.30;1.15;;;20.00;99.90;;;;;;5056281;28;20040;-67
2021/06/08 18:47:25;;;;;;;3.10;1.52;;;19.90;99.90;;;;;;5058970;28;20048;-67
2021/06/08 18:49:51;;;;;;;2.83;1.73;;;19.70;99.90;;;;;;5060945;28;20036;-67
2021/06/08 18:56:23;;;;;;;2.45;1.60;;;19.60;99.90;;;;;;5073056;28;20051;-67
2021/06/08 18:59:00;;;;;;;4.47;1.52;;;19.50;99.90;;;;;;5078774;28;20036;-67
2021/06/08 19:08:54;;;;;;;3.17;1.38;;;19.10;99.90;;;;;;5075761;28;20040;-67
2021/06/08 19:11:52;;;;;;;2.92;1.17;;;19.00;99.90;;;;;;5088419;28;20130;-67
2021/06/08 19:14:23;;;;;;;2.83;1.70;;;18.80;99.90;;;;;;5059308;28;20043;-67
2021/06/08 19:21:22;;;;;;;3.85;1.50;;;18.70;99.90;;;;;;5085726;28;20035;-67
2021/06/08 19:23:48;;;;;;;2.75;1.67;;;18.60;99.90;;;;;;5055359;28;20445;-67
2021/06/08 19:26:40;;;;;;;3.50;1.63;;;18.50;99.90;;;;;;5075393;28;20087;-67
2021/06/08 19:29:22;;;;;;;3.17;2.00;;;18.50;99.90;;;;;;5080612;28;20040;-67
2021/06/08 19:36:22;;;;;;;2.97;2.08;;;18.30;99.90;;;;;;5068050;28;20511;-67
2021/06/08 19:38:54;;;;;;;3.92;1.77;;;18.20;99.90;;;;;;5055158;28;20037;-67
2021/06/08 19:41:22;;;;;;;3.92;2.13;;;18.20;99.90;;;;;;5088963;28;20039;-67
2021/06/08 19:43:56;;;;;;;4.07;1.95;;;18.20;99.90;;;;;;5055038;28;20489;-67
2021/06/08 19:46:27;;;;;;;3.80;2.08;;;18.10;99.90;;;;;;5055628;28;20114;-67
2021/06/08 19:56:26;;;;;;;5.30;2.60;;;18.00;99.90;;;;;;5086791;28;20090;-67
2021/06/08 19:58:54;;;;;;;5.13;3.33;;;17.90;99.90;;;;;;5069743;28;20119;-67
2021/06/08 20:01:48;;;;;;;6.65;2.90;;;17.80;99.90;;;;;;5069050;28;20049;-67
2021/06/08 20:04:36;;;;;;;;;;;17.70;99.90;;;;;;5056070;28;20040;-67
2021/06/08 20:07:04;;;;;;;6.32;3.15;;;17.70;99.90;;;;;;5056012;28;19920;-67
2021/06/08 20:09:33;;;;;;;6.15;2.50;;;17.60;99.90;;;;;;5055982;28;20043;-67
2021/06/08 20:12:14;;;;;;;5.07;2.80;;;17.50;99.90;;;;;;5068233;28;20116;-67
2021/06/08 20:15:00;;;;;;;4.10;2.80;;;17.50;99.90;;;;;;5086768;28;20041;-67
2021/06/08 20:21:21;;;;;;;5.20;3.00;;;17.40;99.90;;;;;;5059474;28;20043;-67
2021/06/08 20:23:48;;;;;;;4.97;3.42;;;17.30;99.90;;;;;;5055042;28;20041;-67
2021/06/08 20:26:25;;;;;;;7.28;4.05;;;17.30;99.90;;;;;;5081412;28;20048;-67
2021/06/08 20:28:53;;;;;;;7.47;3.90;;;17.20;99.90;;;;;;5070621;28;20040;-67
2021/06/08 20:31:22;;;;;;;5.78;3.50;;;17.20;99.90;;;;;;5073130;28;20047;-67
2021/06/08 20:33:53;;;;;;;5.43;3.72;;;17.10;99.90;;;;;;5068569;28;20048;-67
2021/06/08 20:36:47;;;;;;;7.22;4.90;;;17.10;99.90;;;;;;5052923;28;20053;-67
2021/06/08 20:39:30;;;;;;;5.82;4.07;;;17.00;99.90;;;;;;5070793;28;20116;-67
2021/06/08 20:42:04;;;;;;;6.57;3.38;;;17.00;99.90;;;;;;5071019;28;20040;-67
2021/06/08 20:44:32;;;;;;;5.63;3.47;;;17.00;99.90;;;;;;5074025;28;20162;-67
2021/06/08 20:47:28;;;;;;;5.22;3.58;;;16.90;99.90;;;;;;5073548;28;20051;-67
2021/06/08 20:50:22;;;;;;;5.40;2.95;;;16.90;99.90;;;;;;5073608;28;20485;-67
2021/06/08 20:56:23;;;;;;;4.95;2.97;;;16.90;99.90;;;;;;5058056;28;20066;-67
2021/06/08 20:58:57;;;;;;;4.85;2.90;;;16.80;99.90;;;;;;5053880;28;20052;-67
2021/06/08 21:01:29;;;;;;;5.95;3.47;;;16.80;99.90;;;;;;5082274;28;20059;-67
2021/06/08 21:11:54;;;;;;;4.63;2.78;;;16.70;99.90;;;;;;5074913;28;20098;-67
2021/06/08 21:14:23;;;;;;;6.67;4.33;;;16.60;99.90;;;;;;5073628;28;20087;-67
2021/06/08 21:16:55;;;;;;;6.53;3.90;;;16.50;99.90;;;;;;5065464;28;20321;-67
2021/06/08 21:19:23;;;;;;;8.55;4.57;;;16.50;99.90;;;;;;5076237;28;20488;-67
2021/06/08 21:21:53;;;;;;;9.85;5.30;;;16.50;99.90;;;;;;5092418;28;20127;-67
2021/06/08 21:24:31;;;;;;;10.20;4.78;;;16.40;99.90;;;;;;5071859;28;20036;-67
2021/06/08 21:27:14;;;;;;;6.43;4.50;;;16.40;99.90;;;;;;5058374;28;20076;-67
2021/06/08 21:33:52;;;;;;;5.63;3.58;;;16.30;99.90;;;;;;5079551;28;20074;-67
2021/06/08 21:36:23;;;;;;;9.63;5.38;;;16.30;99.90;;;;;;5058277;28;20053;-67
2021/06/08 21:38:57;;;;;;;8.02;5.18;;;16.30;99.90;;;;;;5053763;28;20136;-67
2021/06/08 21:41:23;;;;;;;8.75;5.10;;;16.20;99.90;;;;;;5068665;28;20037;-67
2021/06/08 21:44:25;;;;;;;6.72;4.50;;;16.20;99.90;;;;;;5069173;28;20044;-67
2021/06/08 21:51:22;;;;;;;8.52;4.95;;;16.10;99.90;;;;;;5072488;28;20499;-67
2021/06/08 21:53:51;;;;;;;7.65;4.85;;;16.00;99.90;;;;;;5072434;28;20048;-67
2021/06/08 21:56:27;;;;;;;8.55;5.40;;;15.90;99.90;;;;;;5058785;28;20045;-67
2021/06/08 21:58:53;;;;;;;8.27;5.43;;;15.80;99.90;;;;;;5056647;28;20072;-67
2021/06/08 22:01:39;;;;;;;7.93;5.30;;;15.80;99.90;;;;;;5097257;28;20092;-67
2021/06/08 22:11:54;;;;;;;7.13;5.00;;;15.70;99.90;;;;;;5056826;28;20041;-67
2021/06/08 22:18:52;;;;;;;7.25;4.25;;;15.60;99.90;;;;;;5070028;28;20043;-67
2021/06/08 22:21:24;;;;;;;8.25;5.47;;;15.60;99.90;;;;;;5088479;28;20049;-67
2021/06/08 22:23:51;;;;;;;10.85;5.63;;;15.50;99.90;;;;;;5096704;28;20127;-67
2021/06/08 22:26:54;;;;;;;7.97;5.10;;;15.50;99.90;;;;;;5095723;28;20093;-67
2021/06/08 22:29:36;;;;;;;8.52;5.60;;;15.40;99.90;;;;;;5061839;28;20067;-67
2021/06/08 22:32:05;;;;;;;7.97;4.72;;;15.40;99.90;;;;;;5066140;28;20049;-67